Newtown, United Kingdom
Current Conditions -  °F | °C
As of 9:50 AM on Monday 26 Jan 2015 (Local Time) from EGOS Reporting Station
Broken Clouds Broken Clouds  
Wind Chill: 38°   Ceiling: 22000
Heat Index: 45°   Visibility: 6mi
Dew Point: 34°   Wind: 14mph
Humidity: 66%   Direction: 290°WNW
Pressure: 30.21"   Gusts: NA
Location:  52.52°N, 3.3°W
Report Text: EGOS 260950Z 29012KT 9999 FEW018 BKN220 07/01 Q1023 BLU NOSIG
Loading
Personal Weather Stations






























Interactive Weather Map New forecast layout! Learn more

10-Day Weather Forecast

Advertisements
Track Severe Weather on mobile